Terminal Aerodrome Forecast
Issued by NWS

Home | Current Version | Previous Version | Text Only | Print | Product List | Glossary Off
Versions: 1 2 3 4 5 6 7 8 9 10 11 12 13 14 15

000
FTUS43 KMPX 241120
TAFRNH
TAF
KRNH 241120Z 2412/2512 12005KT P6SM OVC070
     FM241800 12013G20KT 6SM -SHRA SCT025 OVC050
     FM250300 10012KT 5SM -DZ OVC025=

USA.gov is the U.S. government's official web portal to all federal, state and local government web resources and services.